sensor_id;sensor_type;location;lat;lon;timestamp;P1;durP1;ratioP1;P2;durP2;ratioP2
18405;SDS011;9329;48.720;9.588;2022-12-10T00:00:35;40.33;;;26.33;;
18405;SDS011;9329;48.720;9.588;2022-12-10T00:03:02;39.33;;;25.52;;
18405;SDS011;9329;48.720;9.588;2022-12-10T00:05:30;38.17;;;26.05;;
18405;SDS011;9329;48.720;9.588;2022-12-10T00:07:59;39.78;;;25.50;;
18405;SDS011;9329;48.720;9.588;2022-12-10T00:10:26;39.60;;;27.13;;
18405;SDS011;9329;48.720;9.588;2022-12-10T00:12:54;40.25;;;27.00;;
18405;SDS011;9329;48.720;9.588;2022-12-10T00:15:21;38.97;;;26.25;;
18405;SDS011;9329;48.720;9.588;2022-12-10T00:17:49;41.83;;;26.80;;
18405;SDS011;9329;48.720;9.588;2022-12-10T00:20:16;41.55;;;27.13;;
18405;SDS011;9329;48.720;9.588;2022-12-10T00:22:43;39.50;;;25.80;;
18405;SDS011;9329;48.720;9.588;2022-12-10T00:25:10;41.05;;;26.08;;
18405;SDS011;9329;48.720;9.588;2022-12-10T00:27:37;40.17;;;26.03;;
18405;SDS011;9329;48.720;9.588;2022-12-10T00:30:05;41.25;;;26.40;;
18405;SDS011;9329;48.720;9.588;2022-12-10T00:32:32;40.42;;;26.50;;
18405;SDS011;9329;48.720;9.588;2022-12-10T00:35:00;41.97;;;27.03;;
18405;SDS011;9329;48.720;9.588;2022-12-10T00:37:28;42.83;;;27.30;;
18405;SDS011;9329;48.720;9.588;2022-12-10T00:39:55;42.60;;;26.85;;
18405;SDS011;9329;48.720;9.588;2022-12-10T00:42:22;40.75;;;26.75;;
18405;SDS011;9329;48.720;9.588;2022-12-10T00:44:49;44.65;;;27.38;;
18405;SDS011;9329;48.720;9.588;2022-12-10T00:47:16;44.45;;;27.33;;
18405;SDS011;9329;48.720;9.588;2022-12-10T00:49:43;43.55;;;27.33;;
18405;SDS011;9329;48.720;9.588;2022-12-10T00:52:11;41.75;;;26.35;;
18405;SDS011;9329;48.720;9.588;2022-12-10T00:54:38;41.22;;;26.58;;
18405;SDS011;9329;48.720;9.588;2022-12-10T00:57:06;41.47;;;26.42;;
18405;SDS011;9329;48.720;9.588;2022-12-10T00:59:33;39.80;;;26.55;;
18405;SDS011;9329;48.720;9.588;2022-12-10T01:02:00;42.40;;;27.70;;
18405;SDS011;9329;48.720;9.588;2022-12-10T01:04:27;43.08;;;27.30;;
18405;SDS011;9329;48.720;9.588;2022-12-10T01:06:54;40.75;;;26.85;;
18405;SDS011;9329;48.720;9.588;2022-12-10T01:09:23;41.00;;;26.75;;
18405;SDS011;9329;48.720;9.588;2022-12-10T01:11:52;41.50;;;25.88;;
18405;SDS011;9329;48.720;9.588;2022-12-10T01:14:21;39.90;;;26.47;;
18405;SDS011;9329;48.720;9.588;2022-12-10T01:16:53;40.53;;;26.27;;
18405;SDS011;9329;48.720;9.588;2022-12-10T01:19:21;40.05;;;26.02;;
18405;SDS011;9329;48.720;9.588;2022-12-10T01:21:49;39.80;;;26.02;;
18405;SDS011;9329;48.720;9.588;2022-12-10T01:24:17;40.78;;;26.35;;
18405;SDS011;9329;48.720;9.588;2022-12-10T01:26:45;39.05;;;25.77;;
18405;SDS011;9329;48.720;9.588;2022-12-10T01:29:12;41.50;;;26.83;;
18405;SDS011;9329;48.720;9.588;2022-12-10T01:31:39;39.05;;;25.90;;
18405;SDS011;9329;48.720;9.588;2022-12-10T01:34:08;38.25;;;25.45;;
18405;SDS011;9329;48.720;9.588;2022-12-10T01:36:38;37.33;;;25.27;;
18405;SDS011;9329;48.720;9.588;2022-12-10T01:39:11;41.38;;;26.90;;
18405;SDS011;9329;48.720;9.588;2022-12-10T01:41:40;37.20;;;24.70;;
18405;SDS011;9329;48.720;9.588;2022-12-10T01:47:10;38.58;;;25.10;;
18405;SDS011;9329;48.720;9.588;2022-12-10T01:49:38;37.87;;;25.43;;
18405;SDS011;9329;48.720;9.588;2022-12-10T01:52:08;37.30;;;24.88;;
18405;SDS011;9329;48.720;9.588;2022-12-10T01:54:38;38.50;;;25.52;;
18405;SDS011;9329;48.720;9.588;2022-12-10T01:57:07;36.85;;;24.65;;
18405;SDS011;9329;48.720;9.588;2022-12-10T01:59:36;38.90;;;24.90;;
18405;SDS011;9329;48.720;9.588;2022-12-10T02:02:08;38.10;;;24.83;;
18405;SDS011;9329;48.720;9.588;2022-12-10T02:04:46;38.40;;;25.02;;
18405;SDS011;9329;48.720;9.588;2022-12-10T02:07:22;40.10;;;25.17;;
18405;SDS011;9329;48.720;9.588;2022-12-10T02:09:56;36.33;;;24.15;;
18405;SDS011;9329;48.720;9.588;2022-12-10T02:12:30;40.22;;;24.95;;
18405;SDS011;9329;48.720;9.588;2022-12-10T02:15:04;39.15;;;25.48;;
18405;SDS011;9329;48.720;9.588;2022-12-10T02:17:37;38.70;;;25.60;;
18405;SDS011;9329;48.720;9.588;2022-12-10T02:20:17;38.87;;;25.13;;
18405;SDS011;9329;48.720;9.588;2022-12-10T02:22:47;39.40;;;25.13;;
18405;SDS011;9329;48.720;9.588;2022-12-10T02:25:17;36.45;;;24.15;;
18405;SDS011;9329;48.720;9.588;2022-12-10T02:27:49;36.45;;;24.45;;
18405;SDS011;9329;48.720;9.588;2022-12-10T02:30:27;36.83;;;24.08;;
18405;SDS011;9329;48.720;9.588;2022-12-10T02:32:55;36.90;;;24.77;;
18405;SDS011;9329;48.720;9.588;2022-12-10T02:35:25;37.70;;;24.53;;
18405;SDS011;9329;48.720;9.588;2022-12-10T02:37:55;38.50;;;25.40;;
18405;SDS011;9329;48.720;9.588;2022-12-10T02:40:27;37.15;;;23.65;;
18405;SDS011;9329;48.720;9.588;2022-12-10T02:42:58;38.13;;;24.40;;
18405;SDS011;9329;48.720;9.588;2022-12-10T02:45:27;36.20;;;24.35;;
18405;SDS011;9329;48.720;9.588;2022-12-10T02:47:58;38.58;;;24.85;;
18405;SDS011;9329;48.720;9.588;2022-12-10T02:50:33;37.38;;;24.35;;
18405;SDS011;9329;48.720;9.588;2022-12-10T02:53:02;38.85;;;24.77;;
18405;SDS011;9329;48.720;9.588;2022-12-10T02:55:29;38.40;;;24.10;;
18405;SDS011;9329;48.720;9.588;2022-12-10T02:58:10;36.97;;;23.85;;
18405;SDS011;9329;48.720;9.588;2022-12-10T03:00:47;35.83;;;24.23;;
18405;SDS011;9329;48.720;9.588;2022-12-10T03:03:22;36.30;;;23.73;;
18405;SDS011;9329;48.720;9.588;2022-12-10T03:05:59;36.88;;;24.27;;
18405;SDS011;9329;48.720;9.588;2022-12-10T03:08:34;36.97;;;24.63;;
18405;SDS011;9329;48.720;9.588;2022-12-10T03:11:07;35.38;;;23.83;;
18405;SDS011;9329;48.720;9.588;2022-12-10T03:13:39;36.63;;;24.97;;
18405;SDS011;9329;48.720;9.588;2022-12-10T03:16:12;37.63;;;24.60;;
18405;SDS011;9329;48.720;9.588;2022-12-10T03:18:41;35.92;;;24.27;;
18405;SDS011;9329;48.720;9.588;2022-12-10T03:21:10;35.78;;;23.40;;
18405;SDS011;9329;48.720;9.588;2022-12-10T03:23:45;37.97;;;23.65;;
18405;SDS011;9329;48.720;9.588;2022-12-10T03:26:14;38.17;;;24.48;;
18405;SDS011;9329;48.720;9.588;2022-12-10T03:28:42;35.28;;;23.73;;
18405;SDS011;9329;48.720;9.588;2022-12-10T03:31:14;35.40;;;23.25;;
18405;SDS011;9329;48.720;9.588;2022-12-10T03:33:42;35.10;;;22.90;;
18405;SDS011;9329;48.720;9.588;2022-12-10T03:36:11;37.40;;;23.92;;
18405;SDS011;9329;48.720;9.588;2022-12-10T03:38:39;36.85;;;24.50;;
18405;SDS011;9329;48.720;9.588;2022-12-10T03:41:07;38.15;;;25.02;;
18405;SDS011;9329;48.720;9.588;2022-12-10T03:43:34;39.63;;;25.15;;
18405;SDS011;9329;48.720;9.588;2022-12-10T03:46:01;38.60;;;24.75;;
18405;SDS011;9329;48.720;9.588;2022-12-10T03:48:29;38.35;;;24.38;;
18405;SDS011;9329;48.720;9.588;2022-12-10T03:50:56;37.65;;;24.40;;
18405;SDS011;9329;48.720;9.588;2022-12-10T03:53:23;37.78;;;24.83;;
18405;SDS011;9329;48.720;9.588;2022-12-10T03:55:50;36.33;;;23.80;;
18405;SDS011;9329;48.720;9.588;2022-12-10T03:58:17;39.03;;;24.73;;
18405;SDS011;9329;48.720;9.588;2022-12-10T04:00:44;36.77;;;24.53;;
18405;SDS011;9329;48.720;9.588;2022-12-10T04:03:11;37.90;;;25.45;;
18405;SDS011;9329;48.720;9.588;2022-12-10T04:05:40;37.50;;;24.25;;
18405;SDS011;9329;48.720;9.588;2022-12-10T04:08:07;36.30;;;24.05;;
18405;SDS011;9329;48.720;9.588;2022-12-10T04:10:34;38.00;;;25.17;;
18405;SDS011;9329;48.720;9.588;2022-12-10T04:13:02;39.95;;;25.60;;
18405;SDS011;9329;48.720;9.588;2022-12-10T04:15:47;36.08;;;24.13;;
18405;SDS011;9329;48.720;9.588;2022-12-10T04:18:46;36.28;;;24.08;;
18405;SDS011;9329;48.720;9.588;2022-12-10T04:21:15;36.08;;;23.52;;
18405;SDS011;9329;48.720;9.588;2022-12-10T04:23:59;35.53;;;23.37;;
18405;SDS011;9329;48.720;9.588;2022-12-10T04:26:43;36.58;;;23.88;;
18405;SDS011;9329;48.720;9.588;2022-12-10T04:29:19;37.60;;;23.97;;
18405;SDS011;9329;48.720;9.588;2022-12-10T04:31:46;38.08;;;24.63;;
18405;SDS011;9329;48.720;9.588;2022-12-10T04:34:13;34.83;;;23.50;;
18405;SDS011;9329;48.720;9.588;2022-12-10T04:36:41;36.58;;;23.70;;
18405;SDS011;9329;48.720;9.588;2022-12-10T04:39:08;34.97;;;22.75;;
18405;SDS011;9329;48.720;9.588;2022-12-10T04:41:37;34.08;;;23.05;;
18405;SDS011;9329;48.720;9.588;2022-12-10T04:44:05;35.67;;;24.25;;
18405;SDS011;9329;48.720;9.588;2022-12-10T04:46:32;34.50;;;23.52;;
18405;SDS011;9329;48.720;9.588;2022-12-10T04:48:59;36.60;;;23.63;;
18405;SDS011;9329;48.720;9.588;2022-12-10T04:51:26;35.78;;;23.88;;
18405;SDS011;9329;48.720;9.588;2022-12-10T04:53:55;35.08;;;23.77;;
18405;SDS011;9329;48.720;9.588;2022-12-10T04:56:22;35.83;;;24.30;;
18405;SDS011;9329;48.720;9.588;2022-12-10T04:58:49;34.85;;;23.27;;
18405;SDS011;9329;48.720;9.588;2022-12-10T05:01:16;36.35;;;23.80;;
18405;SDS011;9329;48.720;9.588;2022-12-10T05:03:44;36.75;;;24.27;;
18405;SDS011;9329;48.720;9.588;2022-12-10T05:06:13;36.30;;;24.50;;
18405;SDS011;9329;48.720;9.588;2022-12-10T05:08:42;37.20;;;25.03;;
18405;SDS011;9329;48.720;9.588;2022-12-10T05:11:12;37.63;;;25.00;;
18405;SDS011;9329;48.720;9.588;2022-12-10T05:13:40;36.63;;;24.65;;
18405;SDS011;9329;48.720;9.588;2022-12-10T05:16:09;36.05;;;23.95;;
18405;SDS011;9329;48.720;9.588;2022-12-10T05:18:38;35.80;;;23.37;;
18405;SDS011;9329;48.720;9.588;2022-12-10T05:21:06;35.10;;;23.52;;
18405;SDS011;9329;48.720;9.588;2022-12-10T05:23:35;34.08;;;23.55;;
18405;SDS011;9329;48.720;9.588;2022-12-10T05:26:03;35.88;;;23.58;;
18405;SDS011;9329;48.720;9.588;2022-12-10T05:28:33;36.05;;;24.67;;
18405;SDS011;9329;48.720;9.588;2022-12-10T05:31:01;40.33;;;25.85;;
18405;SDS011;9329;48.720;9.588;2022-12-10T05:33:28;36.93;;;24.60;;
18405;SDS011;9329;48.720;9.588;2022-12-10T05:35:56;35.50;;;24.15;;
18405;SDS011;9329;48.720;9.588;2022-12-10T05:38:25;35.97;;;23.65;;
18405;SDS011;9329;48.720;9.588;2022-12-10T05:40:52;36.42;;;24.10;;
18405;SDS011;9329;48.720;9.588;2022-12-10T05:43:20;37.20;;;24.52;;
18405;SDS011;9329;48.720;9.588;2022-12-10T05:45:48;36.42;;;24.15;;
18405;SDS011;9329;48.720;9.588;2022-12-10T05:48:15;36.50;;;24.42;;
18405;SDS011;9329;48.720;9.588;2022-12-10T05:50:42;41.25;;;27.33;;
18405;SDS011;9329;48.720;9.588;2022-12-10T05:53:10;40.97;;;27.60;;
18405;SDS011;9329;48.720;9.588;2022-12-10T05:55:44;38.05;;;25.27;;
18405;SDS011;9329;48.720;9.588;2022-12-10T05:58:12;36.60;;;24.67;;
18405;SDS011;9329;48.720;9.588;2022-12-10T06:00:39;36.03;;;24.45;;
18405;SDS011;9329;48.720;9.588;2022-12-10T06:03:09;36.58;;;24.00;;
18405;SDS011;9329;48.720;9.588;2022-12-10T06:05:36;35.58;;;23.90;;
18405;SDS011;9329;48.720;9.588;2022-12-10T06:08:03;35.97;;;24.02;;
18405;SDS011;9329;48.720;9.588;2022-12-10T06:10:31;36.90;;;24.77;;
18405;SDS011;9329;48.720;9.588;2022-12-10T06:12:59;36.22;;;23.95;;
18405;SDS011;9329;48.720;9.588;2022-12-10T06:15:26;37.13;;;25.15;;
18405;SDS011;9329;48.720;9.588;2022-12-10T06:17:53;38.40;;;25.10;;
18405;SDS011;9329;48.720;9.588;2022-12-10T06:20:22;34.42;;;23.63;;
18405;SDS011;9329;48.720;9.588;2022-12-10T06:22:49;35.88;;;24.30;;
18405;SDS011;9329;48.720;9.588;2022-12-10T06:25:16;37.15;;;25.00;;
18405;SDS011;9329;48.720;9.588;2022-12-10T06:27:44;36.50;;;24.17;;
18405;SDS011;9329;48.720;9.588;2022-12-10T06:30:11;35.28;;;23.83;;
18405;SDS011;9329;48.720;9.588;2022-12-10T06:32:38;34.90;;;23.55;;
18405;SDS011;9329;48.720;9.588;2022-12-10T06:35:08;36.42;;;23.85;;
18405;SDS011;9329;48.720;9.588;2022-12-10T06:37:37;35.70;;;23.70;;
18405;SDS011;9329;48.720;9.588;2022-12-10T06:40:04;35.90;;;24.27;;
18405;SDS011;9329;48.720;9.588;2022-12-10T06:42:32;35.07;;;23.40;;
18405;SDS011;9329;48.720;9.588;2022-12-10T06:44:59;37.63;;;25.35;;
18405;SDS011;9329;48.720;9.588;2022-12-10T06:47:26;35.00;;;24.05;;
18405;SDS011;9329;48.720;9.588;2022-12-10T06:49:53;35.55;;;24.10;;
18405;SDS011;9329;48.720;9.588;2022-12-10T06:52:20;34.00;;;23.70;;
18405;SDS011;9329;48.720;9.588;2022-12-10T06:54:48;33.67;;;23.27;;
18405;SDS011;9329;48.720;9.588;2022-12-10T06:57:15;35.67;;;24.70;;
18405;SDS011;9329;48.720;9.588;2022-12-10T06:59:43;36.00;;;24.67;;
18405;SDS011;9329;48.720;9.588;2022-12-10T07:02:10;33.83;;;23.10;;
18405;SDS011;9329;48.720;9.588;2022-12-10T07:04:37;34.65;;;24.25;;
18405;SDS011;9329;48.720;9.588;2022-12-10T07:07:04;35.95;;;23.42;;
18405;SDS011;9329;48.720;9.588;2022-12-10T07:09:32;34.90;;;23.33;;
18405;SDS011;9329;48.720;9.588;2022-12-10T07:12:00;34.65;;;23.40;;
18405;SDS011;9329;48.720;9.588;2022-12-10T07:14:27;37.05;;;25.48;;
18405;SDS011;9329;48.720;9.588;2022-12-10T07:16:54;35.30;;;24.33;;
18405;SDS011;9329;48.720;9.588;2022-12-10T07:19:22;35.85;;;23.70;;
18405;SDS011;9329;48.720;9.588;2022-12-10T07:21:49;33.75;;;23.50;;
18405;SDS011;9329;48.720;9.588;2022-12-10T07:24:17;35.17;;;24.02;;
18405;SDS011;9329;48.720;9.588;2022-12-10T07:26:45;36.55;;;24.35;;
18405;SDS011;9329;48.720;9.588;2022-12-10T07:29:15;37.05;;;25.40;;
18405;SDS011;9329;48.720;9.588;2022-12-10T07:31:43;35.28;;;24.55;;
18405;SDS011;9329;48.720;9.588;2022-12-10T07:34:10;34.13;;;23.80;;
18405;SDS011;9329;48.720;9.588;2022-12-10T07:36:37;34.90;;;23.77;;
18405;SDS011;9329;48.720;9.588;2022-12-10T07:39:05;34.50;;;23.70;;
18405;SDS011;9329;48.720;9.588;2022-12-10T07:41:32;36.97;;;24.70;;
18405;SDS011;9329;48.720;9.588;2022-12-10T07:44:01;37.03;;;24.60;;
18405;SDS011;9329;48.720;9.588;2022-12-10T07:46:30;36.27;;;24.10;;
18405;SDS011;9329;48.720;9.588;2022-12-10T07:48:59;33.35;;;22.80;;
18405;SDS011;9329;48.720;9.588;2022-12-10T07:51:27;34.60;;;23.25;;
18405;SDS011;9329;48.720;9.588;2022-12-10T07:53:55;34.63;;;23.42;;
18405;SDS011;9329;48.720;9.588;2022-12-10T07:56:22;35.45;;;24.48;;
18405;SDS011;9329;48.720;9.588;2022-12-10T07:58:50;34.63;;;23.50;;
18405;SDS011;9329;48.720;9.588;2022-12-10T08:01:18;32.58;;;22.13;;
18405;SDS011;9329;48.720;9.588;2022-12-10T08:03:49;35.20;;;24.23;;
18405;SDS011;9329;48.720;9.588;2022-12-10T08:06:17;37.25;;;25.10;;
18405;SDS011;9329;48.720;9.588;2022-12-10T08:08:45;36.47;;;25.23;;
18405;SDS011;9329;48.720;9.588;2022-12-10T08:11:13;37.83;;;24.77;;
18405;SDS011;9329;48.720;9.588;2022-12-10T08:13:42;38.65;;;26.27;;
18405;SDS011;9329;48.720;9.588;2022-12-10T08:16:10;35.22;;;24.17;;
18405;SDS011;9329;48.720;9.588;2022-12-10T08:18:41;34.85;;;24.17;;
18405;SDS011;9329;48.720;9.588;2022-12-10T08:21:12;36.45;;;25.42;;
18405;SDS011;9329;48.720;9.588;2022-12-10T08:23:46;35.40;;;24.77;;
18405;SDS011;9329;48.720;9.588;2022-12-10T08:26:14;35.10;;;24.17;;
18405;SDS011;9329;48.720;9.588;2022-12-10T08:28:43;35.33;;;24.98;;
18405;SDS011;9329;48.720;9.588;2022-12-10T08:31:11;34.47;;;24.23;;
18405;SDS011;9329;48.720;9.588;2022-12-10T08:33:39;37.15;;;24.70;;
18405;SDS011;9329;48.720;9.588;2022-12-10T08:36:07;36.53;;;24.70;;
18405;SDS011;9329;48.720;9.588;2022-12-10T08:38:36;34.50;;;23.20;;
18405;SDS011;9329;48.720;9.588;2022-12-10T08:41:07;31.63;;;22.50;;
18405;SDS011;9329;48.720;9.588;2022-12-10T08:43:35;32.28;;;22.60;;
18405;SDS011;9329;48.720;9.588;2022-12-10T08:46:02;29.77;;;21.15;;
18405;SDS011;9329;48.720;9.588;2022-12-10T08:48:29;32.28;;;22.13;;
18405;SDS011;9329;48.720;9.588;2022-12-10T08:50:57;31.55;;;22.60;;
18405;SDS011;9329;48.720;9.588;2022-12-10T08:53:24;30.48;;;20.52;;
18405;SDS011;9329;48.720;9.588;2022-12-10T08:55:54;28.55;;;20.13;;
18405;SDS011;9329;48.720;9.588;2022-12-10T08:58:21;30.77;;;21.77;;
18405;SDS011;9329;48.720;9.588;2022-12-10T09:00:48;32.20;;;21.73;;
18405;SDS011;9329;48.720;9.588;2022-12-10T09:03:16;31.02;;;22.00;;
18405;SDS011;9329;48.720;9.588;2022-12-10T09:05:43;30.13;;;20.08;;
18405;SDS011;9329;48.720;9.588;2022-12-10T09:08:11;30.55;;;21.27;;
18405;SDS011;9329;48.720;9.588;2022-12-10T09:10:39;30.98;;;21.40;;
18405;SDS011;9329;48.720;9.588;2022-12-10T09:13:08;32.22;;;21.55;;
18405;SDS011;9329;48.720;9.588;2022-12-10T09:15:36;33.95;;;21.10;;
18405;SDS011;9329;48.720;9.588;2022-12-10T09:18:03;31.80;;;21.70;;
18405;SDS011;9329;48.720;9.588;2022-12-10T09:20:31;31.17;;;21.30;;
18405;SDS011;9329;48.720;9.588;2022-12-10T09:22:58;34.75;;;22.65;;
18405;SDS011;9329;48.720;9.588;2022-12-10T09:25:25;31.60;;;21.52;;
18405;SDS011;9329;48.720;9.588;2022-12-10T09:27:52;39.13;;;26.00;;
18405;SDS011;9329;48.720;9.588;2022-12-10T09:30:20;34.17;;;22.80;;
18405;SDS011;9329;48.720;9.588;2022-12-10T09:32:48;30.55;;;21.20;;
18405;SDS011;9329;48.720;9.588;2022-12-10T09:35:15;30.42;;;21.00;;
18405;SDS011;9329;48.720;9.588;2022-12-10T09:37:42;30.08;;;21.08;;
18405;SDS011;9329;48.720;9.588;2022-12-10T09:40:10;30.55;;;21.00;;
18405;SDS011;9329;48.720;9.588;2022-12-10T09:42:43;30.88;;;21.60;;
18405;SDS011;9329;48.720;9.588;2022-12-10T09:45:20;31.83;;;23.00;;
18405;SDS011;9329;48.720;9.588;2022-12-10T09:48:01;32.63;;;22.33;;
18405;SDS011;9329;48.720;9.588;2022-12-10T09:50:33;31.90;;;22.27;;
18405;SDS011;9329;48.720;9.588;2022-12-10T09:53:07;31.20;;;21.60;;
18405;SDS011;9329;48.720;9.588;2022-12-10T09:55:40;31.08;;;20.92;;
18405;SDS011;9329;48.720;9.588;2022-12-10T09:58:13;30.75;;;21.05;;
18405;SDS011;9329;48.720;9.588;2022-12-10T10:00:46;30.05;;;20.90;;
18405;SDS011;9329;48.720;9.588;2022-12-10T10:03:14;29.70;;;20.80;;
18405;SDS011;9329;48.720;9.588;2022-12-10T10:05:43;29.60;;;20.53;;
18405;SDS011;9329;48.720;9.588;2022-12-10T10:08:17;28.40;;;20.17;;
18405;SDS011;9329;48.720;9.588;2022-12-10T10:10:49;31.05;;;20.83;;
18405;SDS011;9329;48.720;9.588;2022-12-10T10:13:18;29.98;;;20.58;;
18405;SDS011;9329;48.720;9.588;2022-12-10T10:15:55;31.77;;;20.30;;
18405;SDS011;9329;48.720;9.588;2022-12-10T10:18:29;28.92;;;19.58;;
18405;SDS011;9329;48.720;9.588;2022-12-10T10:21:02;28.95;;;19.20;;
18405;SDS011;9329;48.720;9.588;2022-12-10T10:23:31;27.98;;;18.30;;
18405;SDS011;9329;48.720;9.588;2022-12-10T10:26:00;27.58;;;18.67;;
18405;SDS011;9329;48.720;9.588;2022-12-10T10:28:27;27.27;;;18.67;;
18405;SDS011;9329;48.720;9.588;2022-12-10T10:30:56;25.75;;;18.40;;
18405;SDS011;9329;48.720;9.588;2022-12-10T10:33:24;24.20;;;17.60;;
18405;SDS011;9329;48.720;9.588;2022-12-10T10:35:53;26.87;;;18.80;;
18405;SDS011;9329;48.720;9.588;2022-12-10T10:38:23;26.17;;;17.48;;
18405;SDS011;9329;48.720;9.588;2022-12-10T10:40:54;27.60;;;19.15;;
18405;SDS011;9329;48.720;9.588;2022-12-10T10:43:23;26.95;;;18.17;;
18405;SDS011;9329;48.720;9.588;2022-12-10T10:45:52;27.70;;;18.75;;
18405;SDS011;9329;48.720;9.588;2022-12-10T10:48:25;28.05;;;19.08;;
18405;SDS011;9329;48.720;9.588;2022-12-10T10:50:54;30.63;;;20.70;;
18405;SDS011;9329;48.720;9.588;2022-12-10T10:53:31;30.00;;;21.15;;
18405;SDS011;9329;48.720;9.588;2022-12-10T10:56:06;31.23;;;21.38;;
18405;SDS011;9329;48.720;9.588;2022-12-10T10:58:37;29.90;;;20.53;;
18405;SDS011;9329;48.720;9.588;2022-12-10T11:01:16;28.42;;;19.80;;
18405;SDS011;9329;48.720;9.588;2022-12-10T11:03:47;30.15;;;21.13;;
18405;SDS011;9329;48.720;9.588;2022-12-10T11:06:16;27.55;;;19.38;;
18405;SDS011;9329;48.720;9.588;2022-12-10T11:08:44;24.52;;;17.67;;
18405;SDS011;9329;48.720;9.588;2022-12-10T11:11:17;26.70;;;18.92;;
18405;SDS011;9329;48.720;9.588;2022-12-10T11:13:46;26.80;;;19.00;;
18405;SDS011;9329;48.720;9.588;2022-12-10T11:16:18;30.20;;;20.45;;
18405;SDS011;9329;48.720;9.588;2022-12-10T11:18:56;30.38;;;20.55;;
18405;SDS011;9329;48.720;9.588;2022-12-10T11:21:27;26.27;;;19.05;;
18405;SDS011;9329;48.720;9.588;2022-12-10T11:23:59;27.17;;;18.83;;
18405;SDS011;9329;48.720;9.588;2022-12-10T11:26:33;26.15;;;18.55;;
18405;SDS011;9329;48.720;9.588;2022-12-10T11:29:23;27.35;;;18.60;;
18405;SDS011;9329;48.720;9.588;2022-12-10T11:32:03;27.95;;;18.77;;
18405;SDS011;9329;48.720;9.588;2022-12-10T11:34:43;27.63;;;18.80;;
18405;SDS011;9329;48.720;9.588;2022-12-10T11:37:17;23.55;;;16.45;;
18405;SDS011;9329;48.720;9.588;2022-12-10T11:42:50;24.10;;;16.80;;
18405;SDS011;9329;48.720;9.588;2022-12-10T11:45:29;23.77;;;16.73;;
18405;SDS011;9329;48.720;9.588;2022-12-10T11:48:09;24.33;;;17.48;;
18405;SDS011;9329;48.720;9.588;2022-12-10T11:50:44;26.87;;;17.90;;
18405;SDS011;9329;48.720;9.588;2022-12-10T11:53:28;24.15;;;17.27;;
18405;SDS011;9329;48.720;9.588;2022-12-10T11:56:13;23.75;;;17.27;;
18405;SDS011;9329;48.720;9.588;2022-12-10T11:58:53;27.73;;;18.65;;
18405;SDS011;9329;48.720;9.588;2022-12-10T12:01:30;26.60;;;18.17;;
18405;SDS011;9329;48.720;9.588;2022-12-10T12:04:20;26.45;;;19.17;;
18405;SDS011;9329;48.720;9.588;2022-12-10T12:07:05;25.90;;;18.60;;
18405;SDS011;9329;48.720;9.588;2022-12-10T12:09:50;28.05;;;19.10;;
18405;SDS011;9329;48.720;9.588;2022-12-10T12:12:27;28.20;;;19.85;;
18405;SDS011;9329;48.720;9.588;2022-12-10T12:15:01;26.30;;;18.55;;
18405;SDS011;9329;48.720;9.588;2022-12-10T12:17:38;23.13;;;16.75;;
18405;SDS011;9329;48.720;9.588;2022-12-10T12:20:12;23.13;;;16.17;;
18405;SDS011;9329;48.720;9.588;2022-12-10T12:22:45;22.83;;;16.35;;
18405;SDS011;9329;48.720;9.588;2022-12-10T12:25:16;22.95;;;16.00;;
18405;SDS011;9329;48.720;9.588;2022-12-10T12:27:50;22.90;;;16.10;;
18405;SDS011;9329;48.720;9.588;2022-12-10T12:30:23;22.45;;;16.17;;
18405;SDS011;9329;48.720;9.588;2022-12-10T12:32:52;22.15;;;14.93;;
18405;SDS011;9329;48.720;9.588;2022-12-10T12:35:27;19.95;;;14.07;;
18405;SDS011;9329;48.720;9.588;2022-12-10T12:38:06;21.40;;;13.98;;
18405;SDS011;9329;48.720;9.588;2022-12-10T12:40:46;20.77;;;14.82;;
18405;SDS011;9329;48.720;9.588;2022-12-10T12:43:19;21.40;;;14.63;;
18405;SDS011;9329;48.720;9.588;2022-12-10T12:45:52;22.37;;;15.30;;
18405;SDS011;9329;48.720;9.588;2022-12-10T12:48:23;21.27;;;15.18;;
18405;SDS011;9329;48.720;9.588;2022-12-10T12:50:57;21.70;;;15.27;;
18405;SDS011;9329;48.720;9.588;2022-12-10T12:53:28;23.75;;;15.95;;
18405;SDS011;9329;48.720;9.588;2022-12-10T12:55:56;21.42;;;14.70;;
18405;SDS011;9329;48.720;9.588;2022-12-10T12:58:34;20.87;;;14.63;;
18405;SDS011;9329;48.720;9.588;2022-12-10T13:01:10;21.02;;;14.55;;
18405;SDS011;9329;48.720;9.588;2022-12-10T13:03:46;21.90;;;15.13;;
18405;SDS011;9329;48.720;9.588;2022-12-10T13:06:17;22.42;;;15.48;;
18405;SDS011;9329;48.720;9.588;2022-12-10T13:08:49;23.25;;;15.05;;
18405;SDS011;9329;48.720;9.588;2022-12-10T13:11:28;23.92;;;15.38;;
18405;SDS011;9329;48.720;9.588;2022-12-10T13:17:01;23.45;;;16.52;;
18405;SDS011;9329;48.720;9.588;2022-12-10T13:19:34;25.85;;;18.45;;
18405;SDS011;9329;48.720;9.588;2022-12-10T13:22:06;27.85;;;18.98;;
18405;SDS011;9329;48.720;9.588;2022-12-10T13:24:44;26.88;;;18.23;;
18405;SDS011;9329;48.720;9.588;2022-12-10T13:27:29;28.38;;;19.10;;
18405;SDS011;9329;48.720;9.588;2022-12-10T13:30:00;28.40;;;19.20;;
18405;SDS011;9329;48.720;9.588;2022-12-10T13:32:44;27.98;;;19.08;;
18405;SDS011;9329;48.720;9.588;2022-12-10T13:35:22;30.75;;;18.90;;
18405;SDS011;9329;48.720;9.588;2022-12-10T13:37:55;28.15;;;18.63;;
18405;SDS011;9329;48.720;9.588;2022-12-10T13:40:36;27.27;;;18.65;;
18405;SDS011;9329;48.720;9.588;2022-12-10T13:43:28;25.48;;;18.55;;
18405;SDS011;9329;48.720;9.588;2022-12-10T13:46:20;27.42;;;18.52;;
18405;SDS011;9329;48.720;9.588;2022-12-10T13:48:50;28.02;;;19.35;;
18405;SDS011;9329;48.720;9.588;2022-12-10T13:54:29;28.02;;;19.20;;
18405;SDS011;9329;48.720;9.588;2022-12-10T13:57:15;27.60;;;19.73;;
18405;SDS011;9329;48.720;9.588;2022-12-10T13:59:55;30.75;;;19.98;;
18405;SDS011;9329;48.720;9.588;2022-12-10T14:02:42;30.08;;;21.05;;
18405;SDS011;9329;48.720;9.588;2022-12-10T14:05:23;29.30;;;20.23;;
18405;SDS011;9329;48.720;9.588;2022-12-10T14:08:03;28.27;;;18.43;;
18405;SDS011;9329;48.720;9.588;2022-12-10T14:10:32;28.50;;;19.90;;
18405;SDS011;9329;48.720;9.588;2022-12-10T14:13:03;28.80;;;19.80;;
18405;SDS011;9329;48.720;9.588;2022-12-10T14:15:32;31.17;;;20.58;;
18405;SDS011;9329;48.720;9.588;2022-12-10T14:18:08;27.90;;;20.10;;
18405;SDS011;9329;48.720;9.588;2022-12-10T14:20:39;30.00;;;20.65;;
18405;SDS011;9329;48.720;9.588;2022-12-10T14:23:19;28.37;;;19.83;;
18405;SDS011;9329;48.720;9.588;2022-12-10T14:26:03;30.30;;;20.55;;
18405;SDS011;9329;48.720;9.588;2022-12-10T14:28:36;29.98;;;21.42;;
18405;SDS011;9329;48.720;9.588;2022-12-10T14:31:06;30.80;;;21.95;;
18405;SDS011;9329;48.720;9.588;2022-12-10T14:33:38;29.58;;;21.42;;
18405;SDS011;9329;48.720;9.588;2022-12-10T14:36:12;30.15;;;21.55;;
18405;SDS011;9329;48.720;9.588;2022-12-10T14:38:43;29.83;;;21.48;;
18405;SDS011;9329;48.720;9.588;2022-12-10T14:41:13;34.58;;;24.00;;
18405;SDS011;9329;48.720;9.588;2022-12-10T14:43:46;37.45;;;26.40;;
18405;SDS011;9329;48.720;9.588;2022-12-10T14:46:15;32.10;;;23.23;;
18405;SDS011;9329;48.720;9.588;2022-12-10T14:48:46;31.17;;;22.60;;
18405;SDS011;9329;48.720;9.588;2022-12-10T14:51:18;30.58;;;21.27;;
18405;SDS011;9329;48.720;9.588;2022-12-10T14:53:49;28.33;;;20.38;;
18405;SDS011;9329;48.720;9.588;2022-12-10T14:56:20;34.78;;;24.27;;
18405;SDS011;9329;48.720;9.588;2022-12-10T14:58:54;31.47;;;21.90;;
18405;SDS011;9329;48.720;9.588;2022-12-10T15:01:26;28.55;;;20.13;;
18405;SDS011;9329;48.720;9.588;2022-12-10T15:03:56;29.00;;;20.45;;
18405;SDS011;9329;48.720;9.588;2022-12-10T15:06:25;28.65;;;20.10;;